KFSM

Fort Smith Regional Airport

Fort Smith, Arkansas, USA
METAR KFSM 162153Z 04007KT 10SM CLR 14/07 A3021 RMK AO2 SLP231 T01390067
Observed Flight Rules
Dec-16 @ 21:53 UTC (10 minutes ago) Visual Flight Rules
Wind Visibility Clouds
40° at 7 knots 10 miles
  • Clear skies
Temperatures Readings
Current 14°C / 57°F
Dewpoint 7°C / 45°F
Humidity 63%
Altimeter 30.21" Hg
Pressure 1023.1 hPa
Elevation 140
METAR KFSM 162153Z 04007KT 10SM CLR 14/07 A3021 RMK AO2 SLP231 T01390067
Observed Flight Rules
Dec-16 @ 21:53 UTC
(10 minutes ago)
VFR
Wind Visibility
40° at 7 knots 10 miles
Clouds
  • Clear skies
Temperature Dewpoint
14°C / 57°F 7°C / 45°F
Humidity Altimeter Pressure
63% 30.21" Hg 1023.1 hPa